sensor_id;sensor_type;location;lat;lon;timestamp;P1;durP1;ratioP1;P2;durP2;ratioP2
70322;SDS011;57735;56.264;43.898;2024-01-15T00:01:45;4.65;;;1.60;;
70322;SDS011;57735;56.264;43.898;2024-01-15T00:04:16;4.28;;;1.35;;
70322;SDS011;57735;56.264;43.898;2024-01-15T00:06:47;4.05;;;1.25;;
70322;SDS011;57735;56.264;43.898;2024-01-15T00:09:19;4.45;;;1.38;;
70322;SDS011;57735;56.264;43.898;2024-01-15T00:11:50;6.20;;;1.52;;
70322;SDS011;57735;56.264;43.898;2024-01-15T00:14:21;2.45;;;1.48;;
70322;SDS011;57735;56.264;43.898;2024-01-15T00:17:10;3.00;;;0.95;;
70322;SDS011;57735;56.264;43.898;2024-01-15T00:19:41;6.40;;;1.55;;
70322;SDS011;57735;56.264;43.898;2024-01-15T00:22:14;2.08;;;1.40;;
70322;SDS011;57735;56.264;43.898;2024-01-15T00:24:45;3.25;;;1.30;;
70322;SDS011;57735;56.264;43.898;2024-01-15T00:27:16;8.55;;;1.67;;
70322;SDS011;57735;56.264;43.898;2024-01-15T00:29:47;3.75;;;1.40;;
70322;SDS011;57735;56.264;43.898;2024-01-15T00:32:18;5.90;;;1.40;;
70322;SDS011;57735;56.264;43.898;2024-01-15T00:34:50;10.93;;;2.42;;
70322;SDS011;57735;56.264;43.898;2024-01-15T00:37:21;10.35;;;2.35;;
70322;SDS011;57735;56.264;43.898;2024-01-15T00:39:55;3.00;;;0.98;;
70322;SDS011;57735;56.264;43.898;2024-01-15T00:42:29;8.63;;;1.83;;
70322;SDS011;57735;56.264;43.898;2024-01-15T00:45:00;7.18;;;2.03;;
70322;SDS011;57735;56.264;43.898;2024-01-15T00:47:35;5.68;;;2.45;;
70322;SDS011;57735;56.264;43.898;2024-01-15T00:50:06;5.95;;;1.90;;
70322;SDS011;57735;56.264;43.898;2024-01-15T00:52:55;4.30;;;1.38;;
70322;SDS011;57735;56.264;43.898;2024-01-15T00:55:45;3.33;;;1.50;;
70322;SDS011;57735;56.264;43.898;2024-01-15T00:58:15;3.13;;;1.30;;
70322;SDS011;57735;56.264;43.898;2024-01-15T01:00:46;6.38;;;1.90;;
70322;SDS011;57735;56.264;43.898;2024-01-15T01:03:36;4.55;;;1.60;;
70322;SDS011;57735;56.264;43.898;2024-01-15T01:06:07;4.90;;;2.00;;
70322;SDS011;57735;56.264;43.898;2024-01-15T01:08:38;3.90;;;1.55;;
70322;SDS011;57735;56.264;43.898;2024-01-15T01:11:12;6.40;;;2.17;;
70322;SDS011;57735;56.264;43.898;2024-01-15T01:13:44;3.13;;;1.30;;
70322;SDS011;57735;56.264;43.898;2024-01-15T01:16:15;3.20;;;1.40;;
70322;SDS011;57735;56.264;43.898;2024-01-15T01:18:45;10.52;;;2.42;;
70322;SDS011;57735;56.264;43.898;2024-01-15T01:21:16;4.43;;;1.70;;
70322;SDS011;57735;56.264;43.898;2024-01-15T01:23:49;7.85;;;1.85;;
70322;SDS011;57735;56.264;43.898;2024-01-15T01:26:20;4.88;;;2.08;;
70322;SDS011;57735;56.264;43.898;2024-01-15T01:28:51;2.75;;;1.70;;
70322;SDS011;57735;56.264;43.898;2024-01-15T01:31:22;5.70;;;2.45;;
70322;SDS011;57735;56.264;43.898;2024-01-15T01:33:54;4.70;;;2.05;;
70322;SDS011;57735;56.264;43.898;2024-01-15T01:36:25;12.32;;;2.33;;
70322;SDS011;57735;56.264;43.898;2024-01-15T01:38:55;9.45;;;1.90;;
70322;SDS011;57735;56.264;43.898;2024-01-15T01:41:26;6.28;;;2.05;;
70322;SDS011;57735;56.264;43.898;2024-01-15T01:43:57;5.03;;;1.75;;
70322;SDS011;57735;56.264;43.898;2024-01-15T01:46:28;7.00;;;1.83;;
70322;SDS011;57735;56.264;43.898;2024-01-15T01:48:59;5.75;;;2.08;;
70322;SDS011;57735;56.264;43.898;2024-01-15T01:51:49;7.15;;;2.58;;
70322;SDS011;57735;56.264;43.898;2024-01-15T01:54:21;7.55;;;1.65;;
70322;SDS011;57735;56.264;43.898;2024-01-15T01:56:52;5.05;;;1.25;;
70322;SDS011;57735;56.264;43.898;2024-01-15T01:59:23;2.40;;;1.35;;
70322;SDS011;57735;56.264;43.898;2024-01-15T02:01:57;8.18;;;1.92;;
70322;SDS011;57735;56.264;43.898;2024-01-15T02:04:31;6.38;;;2.15;;
70322;SDS011;57735;56.264;43.898;2024-01-15T02:07:03;5.30;;;1.70;;
70322;SDS011;57735;56.264;43.898;2024-01-15T02:09:34;4.35;;;1.75;;
70322;SDS011;57735;56.264;43.898;2024-01-15T02:12:05;5.47;;;1.63;;
70322;SDS011;57735;56.264;43.898;2024-01-15T02:14:37;10.02;;;2.13;;
70322;SDS011;57735;56.264;43.898;2024-01-15T02:17:11;2.42;;;0.93;;
70322;SDS011;57735;56.264;43.898;2024-01-15T02:19:42;4.78;;;2.08;;
70322;SDS011;57735;56.264;43.898;2024-01-15T02:22:15;8.30;;;0.97;;
70322;SDS011;57735;56.264;43.898;2024-01-15T02:24:46;5.35;;;2.05;;
70322;SDS011;57735;56.264;43.898;2024-01-15T02:27:17;7.30;;;2.50;;
70322;SDS011;57735;56.264;43.898;2024-01-15T02:30:06;5.47;;;1.70;;
70322;SDS011;57735;56.264;43.898;2024-01-15T02:32:40;3.92;;;1.63;;
70322;SDS011;57735;56.264;43.898;2024-01-15T02:35:13;5.28;;;1.92;;
70322;SDS011;57735;56.264;43.898;2024-01-15T02:37:44;5.63;;;2.03;;
70322;SDS011;57735;56.264;43.898;2024-01-15T02:40:15;4.00;;;1.25;;
70322;SDS011;57735;56.264;43.898;2024-01-15T02:42:46;6.75;;;2.03;;
70322;SDS011;57735;56.264;43.898;2024-01-15T02:45:17;5.10;;;1.95;;
70322;SDS011;57735;56.264;43.898;2024-01-15T02:47:51;3.03;;;1.55;;
70322;SDS011;57735;56.264;43.898;2024-01-15T02:50:21;5.60;;;1.83;;
70322;SDS011;57735;56.264;43.898;2024-01-15T02:52:52;4.85;;;1.95;;
70322;SDS011;57735;56.264;43.898;2024-01-15T02:55:23;6.40;;;2.05;;
70322;SDS011;57735;56.264;43.898;2024-01-15T02:57:54;2.70;;;1.60;;
70322;SDS011;57735;56.264;43.898;2024-01-15T03:00:25;6.03;;;1.70;;
70322;SDS011;57735;56.264;43.898;2024-01-15T03:02:55;2.03;;;1.30;;
70322;SDS011;57735;56.264;43.898;2024-01-15T03:05:26;5.15;;;1.70;;
70322;SDS011;57735;56.264;43.898;2024-01-15T03:07:57;5.78;;;1.05;;
70322;SDS011;57735;56.264;43.898;2024-01-15T03:10:30;8.57;;;2.25;;
70322;SDS011;57735;56.264;43.898;2024-01-15T03:13:01;4.95;;;1.88;;
70322;SDS011;57735;56.264;43.898;2024-01-15T03:15:32;6.28;;;2.15;;
70322;SDS011;57735;56.264;43.898;2024-01-15T03:20:52;6.15;;;2.40;;
70322;SDS011;57735;56.264;43.898;2024-01-15T03:23:23;3.58;;;2.00;;
70322;SDS011;57735;56.264;43.898;2024-01-15T03:25:53;3.67;;;1.75;;
70322;SDS011;57735;56.264;43.898;2024-01-15T03:28:24;10.38;;;2.65;;
70322;SDS011;57735;56.264;43.898;2024-01-15T03:30:55;6.47;;;2.40;;
70322;SDS011;57735;56.264;43.898;2024-01-15T03:33:25;4.25;;;1.50;;
70322;SDS011;57735;56.264;43.898;2024-01-15T03:35:56;7.75;;;1.98;;
70322;SDS011;57735;56.264;43.898;2024-01-15T03:38:28;6.03;;;1.67;;
70322;SDS011;57735;56.264;43.898;2024-01-15T03:40:59;6.72;;;2.60;;
70322;SDS011;57735;56.264;43.898;2024-01-15T03:43:29;4.82;;;1.63;;
70322;SDS011;57735;56.264;43.898;2024-01-15T03:46:00;6.15;;;1.60;;
70322;SDS011;57735;56.264;43.898;2024-01-15T03:48:49;10.95;;;3.08;;
70322;SDS011;57735;56.264;43.898;2024-01-15T03:51:20;8.30;;;2.60;;
70322;SDS011;57735;56.264;43.898;2024-01-15T03:53:51;4.85;;;2.28;;
70322;SDS011;57735;56.264;43.898;2024-01-15T03:56:22;6.30;;;2.90;;
70322;SDS011;57735;56.264;43.898;2024-01-15T03:58:55;7.50;;;3.10;;
70322;SDS011;57735;56.264;43.898;2024-01-15T04:01:28;5.22;;;2.33;;
70322;SDS011;57735;56.264;43.898;2024-01-15T04:03:59;9.23;;;2.53;;
70322;SDS011;57735;56.264;43.898;2024-01-15T04:06:30;19.90;;;3.15;;
70322;SDS011;57735;56.264;43.898;2024-01-15T04:09:01;12.85;;;2.83;;
70322;SDS011;57735;56.264;43.898;2024-01-15T04:14:24;19.23;;;3.97;;
70322;SDS011;57735;56.264;43.898;2024-01-15T04:16:54;16.38;;;4.10;;
70322;SDS011;57735;56.264;43.898;2024-01-15T04:19:25;10.50;;;3.33;;
70322;SDS011;57735;56.264;43.898;2024-01-15T04:21:56;20.58;;;3.75;;
70322;SDS011;57735;56.264;43.898;2024-01-15T04:24:26;7.40;;;3.17;;
70322;SDS011;57735;56.264;43.898;2024-01-15T04:26:57;11.68;;;3.17;;
70322;SDS011;57735;56.264;43.898;2024-01-15T04:29:28;9.50;;;3.25;;
70322;SDS011;57735;56.264;43.898;2024-01-15T04:32:01;5.38;;;2.80;;
70322;SDS011;57735;56.264;43.898;2024-01-15T04:34:32;4.88;;;2.30;;
70322;SDS011;57735;56.264;43.898;2024-01-15T04:37:03;4.82;;;2.08;;
70322;SDS011;57735;56.264;43.898;2024-01-15T04:39:34;10.30;;;3.05;;
70322;SDS011;57735;56.264;43.898;2024-01-15T04:42:25;7.75;;;3.05;;
70322;SDS011;57735;56.264;43.898;2024-01-15T04:44:56;11.43;;;3.00;;
70322;SDS011;57735;56.264;43.898;2024-01-15T04:47:27;8.88;;;3.33;;
70322;SDS011;57735;56.264;43.898;2024-01-15T04:49:58;6.18;;;2.53;;
70322;SDS011;57735;56.264;43.898;2024-01-15T04:52:28;6.05;;;2.72;;
70322;SDS011;57735;56.264;43.898;2024-01-15T04:54:59;7.35;;;2.33;;
70322;SDS011;57735;56.264;43.898;2024-01-15T04:57:30;7.55;;;2.15;;
70322;SDS011;57735;56.264;43.898;2024-01-15T05:00:03;6.95;;;2.80;;
70322;SDS011;57735;56.264;43.898;2024-01-15T05:02:53;11.18;;;2.72;;
70322;SDS011;57735;56.264;43.898;2024-01-15T05:05:24;11.68;;;3.17;;
70322;SDS011;57735;56.264;43.898;2024-01-15T05:07:54;4.90;;;2.40;;
70322;SDS011;57735;56.264;43.898;2024-01-15T05:10:27;7.93;;;2.67;;
70322;SDS011;57735;56.264;43.898;2024-01-15T05:12:58;10.75;;;3.25;;
70322;SDS011;57735;56.264;43.898;2024-01-15T05:15:29;17.60;;;3.80;;
70322;SDS011;57735;56.264;43.898;2024-01-15T05:18:00;7.90;;;2.45;;
70322;SDS011;57735;56.264;43.898;2024-01-15T05:20:31;8.50;;;3.55;;
70322;SDS011;57735;56.264;43.898;2024-01-15T05:23:02;8.25;;;3.67;;
70322;SDS011;57735;56.264;43.898;2024-01-15T05:25:33;14.57;;;3.83;;
70322;SDS011;57735;56.264;43.898;2024-01-15T05:28:04;11.70;;;4.15;;
70322;SDS011;57735;56.264;43.898;2024-01-15T05:30:36;8.48;;;2.58;;
70322;SDS011;57735;56.264;43.898;2024-01-15T05:33:07;20.88;;;4.28;;
70322;SDS011;57735;56.264;43.898;2024-01-15T05:35:38;11.15;;;4.00;;
70322;SDS011;57735;56.264;43.898;2024-01-15T05:38:09;12.05;;;2.33;;
70322;SDS011;57735;56.264;43.898;2024-01-15T05:40:40;10.15;;;3.33;;
70322;SDS011;57735;56.264;43.898;2024-01-15T05:43:10;21.50;;;4.68;;
70322;SDS011;57735;56.264;43.898;2024-01-15T05:45:42;8.10;;;3.03;;
70322;SDS011;57735;56.264;43.898;2024-01-15T05:48:33;8.30;;;3.03;;
70322;SDS011;57735;56.264;43.898;2024-01-15T05:51:04;16.20;;;3.60;;
70322;SDS011;57735;56.264;43.898;2024-01-15T05:53:35;7.95;;;3.15;;
70322;SDS011;57735;56.264;43.898;2024-01-15T05:56:08;16.23;;;3.85;;
70322;SDS011;57735;56.264;43.898;2024-01-15T05:58:40;21.45;;;5.80;;
70322;SDS011;57735;56.264;43.898;2024-01-15T06:01:11;26.77;;;6.18;;
70322;SDS011;57735;56.264;43.898;2024-01-15T06:03:42;20.25;;;5.85;;
70322;SDS011;57735;56.264;43.898;2024-01-15T06:06:13;18.20;;;4.90;;
70322;SDS011;57735;56.264;43.898;2024-01-15T06:08:43;17.98;;;6.00;;
70322;SDS011;57735;56.264;43.898;2024-01-15T06:11:14;18.27;;;4.60;;
70322;SDS011;57735;56.264;43.898;2024-01-15T06:13:45;21.73;;;6.90;;
70322;SDS011;57735;56.264;43.898;2024-01-15T06:16:17;24.30;;;7.22;;
70322;SDS011;57735;56.264;43.898;2024-01-15T06:18:50;18.20;;;5.78;;
70322;SDS011;57735;56.264;43.898;2024-01-15T06:21:21;18.88;;;5.38;;
70322;SDS011;57735;56.264;43.898;2024-01-15T06:23:52;18.55;;;5.47;;
70322;SDS011;57735;56.264;43.898;2024-01-15T06:28:57;20.80;;;5.50;;
70322;SDS011;57735;56.264;43.898;2024-01-15T06:31:28;22.05;;;5.18;;
70322;SDS011;57735;56.264;43.898;2024-01-15T06:33:59;8.65;;;3.70;;
70322;SDS011;57735;56.264;43.898;2024-01-15T06:36:30;11.15;;;3.78;;
70322;SDS011;57735;56.264;43.898;2024-01-15T06:41:50;12.25;;;3.65;;
70322;SDS011;57735;56.264;43.898;2024-01-15T06:44:39;12.77;;;4.25;;
70322;SDS011;57735;56.264;43.898;2024-01-15T06:47:11;12.05;;;4.65;;
70322;SDS011;57735;56.264;43.898;2024-01-15T06:50:02;12.07;;;3.40;;
70322;SDS011;57735;56.264;43.898;2024-01-15T06:52:35;19.38;;;4.95;;
70322;SDS011;57735;56.264;43.898;2024-01-15T06:55:06;16.42;;;4.78;;
70322;SDS011;57735;56.264;43.898;2024-01-15T06:57:37;17.00;;;6.13;;
70322;SDS011;57735;56.264;43.898;2024-01-15T07:00:08;15.00;;;4.32;;
70322;SDS011;57735;56.264;43.898;2024-01-15T07:02:58;10.95;;;4.22;;
70322;SDS011;57735;56.264;43.898;2024-01-15T07:05:47;7.55;;;2.88;;
70322;SDS011;57735;56.264;43.898;2024-01-15T07:08:18;19.90;;;5.00;;
70322;SDS011;57735;56.264;43.898;2024-01-15T07:10:49;11.00;;;4.05;;
70322;SDS011;57735;56.264;43.898;2024-01-15T07:13:19;11.50;;;4.15;;
70322;SDS011;57735;56.264;43.898;2024-01-15T07:16:09;11.40;;;4.20;;
70322;SDS011;57735;56.264;43.898;2024-01-15T07:18:40;6.00;;;2.40;;
70322;SDS011;57735;56.264;43.898;2024-01-15T07:21:10;9.18;;;3.38;;
70322;SDS011;57735;56.264;43.898;2024-01-15T07:23:41;7.28;;;2.55;;
70322;SDS011;57735;56.264;43.898;2024-01-15T07:26:13;12.27;;;3.95;;
70322;SDS011;57735;56.264;43.898;2024-01-15T07:28:44;6.93;;;2.85;;
70322;SDS011;57735;56.264;43.898;2024-01-15T07:31:15;11.50;;;3.20;;
70322;SDS011;57735;56.264;43.898;2024-01-15T07:33:50;11.20;;;4.50;;
70322;SDS011;57735;56.264;43.898;2024-01-15T07:36:58;8.10;;;3.47;;
70322;SDS011;57735;56.264;43.898;2024-01-15T07:39:29;9.02;;;3.03;;
70322;SDS011;57735;56.264;43.898;2024-01-15T07:42:10;8.73;;;3.60;;
70322;SDS011;57735;56.264;43.898;2024-01-15T07:44:41;7.43;;;3.42;;
70322;SDS011;57735;56.264;43.898;2024-01-15T07:47:11;8.70;;;3.00;;
70322;SDS011;57735;56.264;43.898;2024-01-15T07:49:42;8.07;;;3.33;;
70322;SDS011;57735;56.264;43.898;2024-01-15T07:52:14;7.05;;;3.00;;
70322;SDS011;57735;56.264;43.898;2024-01-15T07:54:44;16.10;;;3.50;;
70322;SDS011;57735;56.264;43.898;2024-01-15T07:57:15;11.20;;;3.50;;
70322;SDS011;57735;56.264;43.898;2024-01-15T08:02:36;17.33;;;3.95;;
70322;SDS011;57735;56.264;43.898;2024-01-15T08:05:07;10.32;;;3.20;;
70322;SDS011;57735;56.264;43.898;2024-01-15T08:07:38;11.32;;;3.72;;
70322;SDS011;57735;56.264;43.898;2024-01-15T08:10:13;8.55;;;3.40;;
70322;SDS011;57735;56.264;43.898;2024-01-15T08:12:45;6.15;;;2.13;;
70322;SDS011;57735;56.264;43.898;2024-01-15T08:15:16;14.32;;;4.30;;
70322;SDS011;57735;56.264;43.898;2024-01-15T08:17:49;11.20;;;3.90;;
70322;SDS011;57735;56.264;43.898;2024-01-15T08:20:23;12.20;;;3.45;;
70322;SDS011;57735;56.264;43.898;2024-01-15T08:22:54;24.58;;;5.25;;
70322;SDS011;57735;56.264;43.898;2024-01-15T08:25:25;15.90;;;3.17;;
70322;SDS011;57735;56.264;43.898;2024-01-15T08:27:56;11.85;;;3.42;;
70322;SDS011;57735;56.264;43.898;2024-01-15T08:30:27;19.25;;;6.18;;
70322;SDS011;57735;56.264;43.898;2024-01-15T08:33:01;10.27;;;3.67;;
70322;SDS011;57735;56.264;43.898;2024-01-15T08:35:50;9.80;;;3.30;;
70322;SDS011;57735;56.264;43.898;2024-01-15T08:38:21;13.65;;;3.50;;
70322;SDS011;57735;56.264;43.898;2024-01-15T08:40:52;10.43;;;3.50;;
70322;SDS011;57735;56.264;43.898;2024-01-15T08:43:29;12.25;;;3.72;;
70322;SDS011;57735;56.264;43.898;2024-01-15T08:46:01;14.55;;;3.65;;
70322;SDS011;57735;56.264;43.898;2024-01-15T08:48:33;17.00;;;3.90;;
70322;SDS011;57735;56.264;43.898;2024-01-15T08:51:04;9.32;;;3.63;;
70322;SDS011;57735;56.264;43.898;2024-01-15T08:53:35;9.93;;;3.55;;
70322;SDS011;57735;56.264;43.898;2024-01-15T08:56:06;8.43;;;2.38;;
70322;SDS011;57735;56.264;43.898;2024-01-15T08:58:55;14.65;;;3.88;;
70322;SDS011;57735;56.264;43.898;2024-01-15T09:01:26;12.88;;;3.78;;
70322;SDS011;57735;56.264;43.898;2024-01-15T09:04:00;11.45;;;4.07;;
70322;SDS011;57735;56.264;43.898;2024-01-15T09:06:31;12.90;;;3.67;;
70322;SDS011;57735;56.264;43.898;2024-01-15T09:09:10;14.32;;;4.55;;
70322;SDS011;57735;56.264;43.898;2024-01-15T09:11:41;14.40;;;3.47;;
70322;SDS011;57735;56.264;43.898;2024-01-15T09:14:30;12.93;;;4.13;;
70322;SDS011;57735;56.264;43.898;2024-01-15T09:17:01;19.20;;;5.38;;
70322;SDS011;57735;56.264;43.898;2024-01-15T09:19:34;21.17;;;6.50;;
70322;SDS011;57735;56.264;43.898;2024-01-15T09:22:05;23.88;;;7.70;;
70322;SDS011;57735;56.264;43.898;2024-01-15T09:24:37;11.68;;;4.55;;
70322;SDS011;57735;56.264;43.898;2024-01-15T09:27:11;13.45;;;5.20;;
70322;SDS011;57735;56.264;43.898;2024-01-15T09:32:35;17.13;;;6.07;;
70322;SDS011;57735;56.264;43.898;2024-01-15T09:35:06;16.80;;;5.32;;
70322;SDS011;57735;56.264;43.898;2024-01-15T09:37:39;23.77;;;6.63;;
70322;SDS011;57735;56.264;43.898;2024-01-15T09:40:13;34.17;;;8.00;;
70322;SDS011;57735;56.264;43.898;2024-01-15T09:42:48;14.13;;;4.93;;
70322;SDS011;57735;56.264;43.898;2024-01-15T09:45:20;14.50;;;5.72;;
70322;SDS011;57735;56.264;43.898;2024-01-15T09:48:10;18.90;;;6.75;;
70322;SDS011;57735;56.264;43.898;2024-01-15T09:50:43;14.40;;;5.22;;
70322;SDS011;57735;56.264;43.898;2024-01-15T09:53:14;10.38;;;3.92;;
70322;SDS011;57735;56.264;43.898;2024-01-15T09:55:49;22.63;;;8.80;;
70322;SDS011;57735;56.264;43.898;2024-01-15T09:58:21;22.92;;;8.15;;
70322;SDS011;57735;56.264;43.898;2024-01-15T10:00:52;16.73;;;5.72;;
70322;SDS011;57735;56.264;43.898;2024-01-15T10:03:24;13.70;;;5.75;;
70322;SDS011;57735;56.264;43.898;2024-01-15T10:05:55;21.77;;;7.72;;
70322;SDS011;57735;56.264;43.898;2024-01-15T10:08:29;19.02;;;5.72;;
70322;SDS011;57735;56.264;43.898;2024-01-15T10:13:50;22.33;;;7.53;;
70322;SDS011;57735;56.264;43.898;2024-01-15T10:16:23;21.90;;;4.82;;
70322;SDS011;57735;56.264;43.898;2024-01-15T10:18:54;24.63;;;7.78;;
70322;SDS011;57735;56.264;43.898;2024-01-15T10:21:25;25.38;;;7.35;;
70322;SDS011;57735;56.264;43.898;2024-01-15T10:23:56;20.05;;;5.22;;
70322;SDS011;57735;56.264;43.898;2024-01-15T10:26:31;24.90;;;7.07;;
70322;SDS011;57735;56.264;43.898;2024-01-15T10:29:02;20.27;;;5.95;;
70322;SDS011;57735;56.264;43.898;2024-01-15T10:31:33;16.00;;;5.45;;
70322;SDS011;57735;56.264;43.898;2024-01-15T10:34:13;11.20;;;4.55;;
70322;SDS011;57735;56.264;43.898;2024-01-15T10:36:46;20.17;;;7.28;;
70322;SDS011;57735;56.264;43.898;2024-01-15T10:39:20;22.60;;;8.60;;
70322;SDS011;57735;56.264;43.898;2024-01-15T10:41:54;19.87;;;5.73;;
70322;SDS011;57735;56.264;43.898;2024-01-15T10:44:27;21.13;;;6.25;;
70322;SDS011;57735;56.264;43.898;2024-01-15T10:46:58;17.63;;;6.28;;
70322;SDS011;57735;56.264;43.898;2024-01-15T10:49:28;15.65;;;4.93;;
70322;SDS011;57735;56.264;43.898;2024-01-15T10:52:01;15.90;;;4.70;;
70322;SDS011;57735;56.264;43.898;2024-01-15T10:54:32;19.60;;;6.82;;
70322;SDS011;57735;56.264;43.898;2024-01-15T10:57:05;15.52;;;4.78;;
70322;SDS011;57735;56.264;43.898;2024-01-15T10:59:39;20.33;;;6.35;;
70322;SDS011;57735;56.264;43.898;2024-01-15T11:02:10;15.65;;;4.93;;
70322;SDS011;57735;56.264;43.898;2024-01-15T11:04:44;18.10;;;5.10;;
70322;SDS011;57735;56.264;43.898;2024-01-15T11:07:15;11.70;;;4.35;;
70322;SDS011;57735;56.264;43.898;2024-01-15T11:09:46;14.13;;;5.38;;
70322;SDS011;57735;56.264;43.898;2024-01-15T11:12:35;14.90;;;3.13;;
70322;SDS011;57735;56.264;43.898;2024-01-15T11:15:06;8.23;;;3.25;;
70322;SDS011;57735;56.264;43.898;2024-01-15T11:17:59;15.38;;;3.55;;
70322;SDS011;57735;56.264;43.898;2024-01-15T11:20:32;12.85;;;4.70;;
70322;SDS011;57735;56.264;43.898;2024-01-15T11:23:03;17.42;;;5.18;;
70322;SDS011;57735;56.264;43.898;2024-01-15T11:25:37;19.67;;;4.78;;
70322;SDS011;57735;56.264;43.898;2024-01-15T11:28:09;14.15;;;5.75;;
70322;SDS011;57735;56.264;43.898;2024-01-15T11:30:39;23.90;;;7.28;;
70322;SDS011;57735;56.264;43.898;2024-01-15T11:33:32;18.40;;;6.75;;
70322;SDS011;57735;56.264;43.898;2024-01-15T11:36:05;23.90;;;6.75;;
70322;SDS011;57735;56.264;43.898;2024-01-15T11:38:36;18.55;;;7.03;;
70322;SDS011;57735;56.264;43.898;2024-01-15T11:41:14;27.02;;;11.25;;
70322;SDS011;57735;56.264;43.898;2024-01-15T11:43:48;13.45;;;6.82;;
70322;SDS011;57735;56.264;43.898;2024-01-15T11:46:22;22.53;;;10.07;;
70322;SDS011;57735;56.264;43.898;2024-01-15T11:49:03;15.65;;;7.20;;
70322;SDS011;57735;56.264;43.898;2024-01-15T11:54:06;14.18;;;5.22;;
70322;SDS011;57735;56.264;43.898;2024-01-15T11:56:43;15.60;;;7.15;;
70322;SDS011;57735;56.264;43.898;2024-01-15T11:59:14;11.98;;;5.97;;
70322;SDS011;57735;56.264;43.898;2024-01-15T12:01:47;24.52;;;10.77;;
70322;SDS011;57735;56.264;43.898;2024-01-15T12:04:22;16.40;;;6.93;;
70322;SDS011;57735;56.264;43.898;2024-01-15T12:07:13;23.20;;;8.20;;
70322;SDS011;57735;56.264;43.898;2024-01-15T12:09:43;26.40;;;7.57;;
70322;SDS011;57735;56.264;43.898;2024-01-15T12:12:17;20.38;;;7.63;;
70322;SDS011;57735;56.264;43.898;2024-01-15T12:14:57;16.20;;;6.25;;
70322;SDS011;57735;56.264;43.898;2024-01-15T12:17:30;17.85;;;5.60;;
70322;SDS011;57735;56.264;43.898;2024-01-15T12:20:01;16.13;;;6.20;;
70322;SDS011;57735;56.264;43.898;2024-01-15T12:22:33;13.57;;;4.93;;
70322;SDS011;57735;56.264;43.898;2024-01-15T12:25:04;12.20;;;5.35;;
70322;SDS011;57735;56.264;43.898;2024-01-15T12:27:35;15.65;;;6.88;;
70322;SDS011;57735;56.264;43.898;2024-01-15T12:30:07;9.30;;;4.03;;
70322;SDS011;57735;56.264;43.898;2024-01-15T12:32:46;9.73;;;3.50;;
70322;SDS011;57735;56.264;43.898;2024-01-15T12:35:17;9.77;;;3.70;;
70322;SDS011;57735;56.264;43.898;2024-01-15T12:37:49;16.02;;;5.05;;
70322;SDS011;57735;56.264;43.898;2024-01-15T12:40:27;16.05;;;5.03;;
70322;SDS011;57735;56.264;43.898;2024-01-15T12:42:58;15.55;;;5.07;;
70322;SDS011;57735;56.264;43.898;2024-01-15T12:45:33;19.52;;;6.30;;
70322;SDS011;57735;56.264;43.898;2024-01-15T12:48:22;15.75;;;5.93;;
70322;SDS011;57735;56.264;43.898;2024-01-15T12:50:53;12.63;;;4.57;;
70322;SDS011;57735;56.264;43.898;2024-01-15T12:53:26;12.98;;;5.18;;
70322;SDS011;57735;56.264;43.898;2024-01-15T12:56:00;18.77;;;7.43;;
70322;SDS011;57735;56.264;43.898;2024-01-15T12:58:31;22.98;;;9.13;;
70322;SDS011;57735;56.264;43.898;2024-01-15T13:01:01;20.67;;;7.03;;
70322;SDS011;57735;56.264;43.898;2024-01-15T13:03:32;26.55;;;9.23;;
70322;SDS011;57735;56.264;43.898;2024-01-15T13:06:03;15.57;;;7.38;;
70322;SDS011;57735;56.264;43.898;2024-01-15T13:08:34;24.98;;;6.57;;
70322;SDS011;57735;56.264;43.898;2024-01-15T13:11:05;9.25;;;3.90;;
70322;SDS011;57735;56.264;43.898;2024-01-15T13:13:36;10.20;;;3.92;;
70322;SDS011;57735;56.264;43.898;2024-01-15T13:16:08;15.85;;;5.50;;
70322;SDS011;57735;56.264;43.898;2024-01-15T13:18:39;14.40;;;3.78;;
70322;SDS011;57735;56.264;43.898;2024-01-15T13:21:11;14.38;;;5.15;;
70322;SDS011;57735;56.264;43.898;2024-01-15T13:24:00;9.82;;;3.67;;
70322;SDS011;57735;56.264;43.898;2024-01-15T13:26:32;7.97;;;3.05;;
70322;SDS011;57735;56.264;43.898;2024-01-15T13:29:04;7.60;;;3.28;;
70322;SDS011;57735;56.264;43.898;2024-01-15T13:31:36;10.20;;;3.40;;
70322;SDS011;57735;56.264;43.898;2024-01-15T13:34:08;7.35;;;3.40;;
70322;SDS011;57735;56.264;43.898;2024-01-15T13:36:40;8.25;;;2.70;;
70322;SDS011;57735;56.264;43.898;2024-01-15T13:42:07;9.63;;;3.45;;
70322;SDS011;57735;56.264;43.898;2024-01-15T13:44:40;8.13;;;3.25;;
70322;SDS011;57735;56.264;43.898;2024-01-15T13:50:01;18.98;;;3.78;;
70322;SDS011;57735;56.264;43.898;2024-01-15T13:52:34;8.20;;;4.00;;
70322;SDS011;57735;56.264;43.898;2024-01-15T13:55:05;9.18;;;3.60;;
70322;SDS011;57735;56.264;43.898;2024-01-15T13:57:39;10.40;;;4.00;;
70322;SDS011;57735;56.264;43.898;2024-01-15T14:00:28;13.50;;;4.80;;
70322;SDS011;57735;56.264;43.898;2024-01-15T14:02:59;5.97;;;2.42;;
70322;SDS011;57735;56.264;43.898;2024-01-15T14:05:31;9.90;;;4.45;;
70322;SDS011;57735;56.264;43.898;2024-01-15T14:08:05;11.57;;;3.50;;
70322;SDS011;57735;56.264;43.898;2024-01-15T14:10:36;9.60;;;3.83;;
70322;SDS011;57735;56.264;43.898;2024-01-15T14:13:25;11.38;;;4.28;;
70322;SDS011;57735;56.264;43.898;2024-01-15T14:15:56;7.38;;;2.67;;
70322;SDS011;57735;56.264;43.898;2024-01-15T14:18:27;11.23;;;3.38;;
70322;SDS011;57735;56.264;43.898;2024-01-15T14:20:58;15.43;;;5.60;;
70322;SDS011;57735;56.264;43.898;2024-01-15T14:23:29;11.98;;;4.57;;
70322;SDS011;57735;56.264;43.898;2024-01-15T14:26:00;10.98;;;3.13;;
70322;SDS011;57735;56.264;43.898;2024-01-15T14:28:31;8.43;;;3.13;;
70322;SDS011;57735;56.264;43.898;2024-01-15T14:31:02;7.18;;;2.97;;
70322;SDS011;57735;56.264;43.898;2024-01-15T14:33:33;6.82;;;3.10;;
70322;SDS011;57735;56.264;43.898;2024-01-15T14:36:04;14.23;;;4.15;;
70322;SDS011;57735;56.264;43.898;2024-01-15T14:38:35;6.63;;;3.10;;
70322;SDS011;57735;56.264;43.898;2024-01-15T14:41:07;15.00;;;3.30;;
70322;SDS011;57735;56.264;43.898;2024-01-15T14:43:38;9.18;;;3.42;;
70322;SDS011;57735;56.264;43.898;2024-01-15T14:46:09;8.40;;;3.58;;
70322;SDS011;57735;56.264;43.898;2024-01-15T14:48:41;7.90;;;3.78;;
70322;SDS011;57735;56.264;43.898;2024-01-15T14:51:12;8.75;;;3.17;;
70322;SDS011;57735;56.264;43.898;2024-01-15T14:53:43;5.47;;;2.63;;
70322;SDS011;57735;56.264;43.898;2024-01-15T14:56:16;6.32;;;2.90;;
70322;SDS011;57735;56.264;43.898;2024-01-15T14:58:51;8.43;;;3.25;;
70322;SDS011;57735;56.264;43.898;2024-01-15T15:01:22;6.20;;;2.58;;
70322;SDS011;57735;56.264;43.898;2024-01-15T15:03:56;8.20;;;3.47;;
70322;SDS011;57735;56.264;43.898;2024-01-15T15:06:27;5.45;;;2.88;;
70322;SDS011;57735;56.264;43.898;2024-01-15T15:09:00;9.75;;;3.38;;
70322;SDS011;57735;56.264;43.898;2024-01-15T15:11:32;7.63;;;2.97;;
70322;SDS011;57735;56.264;43.898;2024-01-15T15:14:03;7.72;;;3.38;;
70322;SDS011;57735;56.264;43.898;2024-01-15T15:16:34;11.77;;;3.50;;
70322;SDS011;57735;56.264;43.898;2024-01-15T15:19:05;10.50;;;3.65;;
70322;SDS011;57735;56.264;43.898;2024-01-15T15:21:36;12.90;;;3.67;;
70322;SDS011;57735;56.264;43.898;2024-01-15T15:24:07;11.38;;;2.90;;
70322;SDS011;57735;56.264;43.898;2024-01-15T15:26:38;14.40;;;4.28;;
70322;SDS011;57735;56.264;43.898;2024-01-15T15:29:09;14.07;;;5.80;;
70322;SDS011;57735;56.264;43.898;2024-01-15T15:31:39;10.50;;;4.20;;